Time;durP1;ratioP1;P1;durP2;ratioP2;P2;SDS_P1;SDS_P2;PMS_P1;PMS_P2;Temp;Humidity;BMP_temperature;BMP_pressure;BME280_temperature;BME280_humidity;BME280_pressure;Samples;Min_cycle;Max_cycle;Signal;HPM_P1;HPM_P2
2023/12/27 00:01:43;;;;;;;33.42;21.02;;;;;;;28.02;60.03;101335.81;4972304;28;70522;-36
2023/12/27 00:04:13;;;;;;;38.15;25.45;;;;;;;28.12;58.14;101333.66;4964357;28;66382;-37
2023/12/27 00:06:44;;;;;;;47.13;26.98;;;;;;;28.13;62.73;101337.19;4942819;28;69731;-37
2023/12/27 00:09:15;;;;;;;60.58;28.83;;;;;;;28.26;59.08;101340.03;4975037;28;67048;-38
2023/12/27 00:11:47;;;;;;;49.88;28.40;;;;;;;28.28;64.11;101340.69;4946033;28;70552;-38
2023/12/27 00:14:17;;;;;;;45.70;27.90;;;;;;;28.36;63.23;101345.97;4956141;28;65446;-38
2023/12/27 00:16:47;;;;;;;47.85;27.08;;;;;;;28.45;60.63;101349.41;4974237;28;69883;-38
2023/12/27 00:19:17;;;;;;;43.10;24.85;;;;;;;28.22;63.58;101304.53;4970249;28;66688;-37
2023/12/27 00:21:48;;;;;;;42.05;24.45;;;;;;;28.56;61.71;101348.88;4965475;28;70752;-38
2023/12/27 00:24:18;;;;;;;44.47;24.48;;;;;;;28.60;65.78;101366.34;4962310;28;65875;-38
2023/12/27 00:26:49;;;;;;;39.03;24.05;;;;;;;28.55;62.03;101352.59;4956730;28;70549;-37
2023/12/27 00:29:19;;;;;;;39.05;24.35;;;;;;;28.69;65.65;101369.75;4967869;28;65860;-38
2023/12/27 00:31:50;;;;;;;41.25;26.80;;;;;;;28.57;63.20;101352.41;4971631;28;70304;-38
2023/12/27 00:34:20;;;;;;;41.90;26.52;;;;;;;28.72;65.83;101381.00;4972309;28;66576;-38
2023/12/27 00:36:51;;;;;;;46.38;29.05;;;;;;;28.75;63.56;101379.75;4965293;28;70716;-38
2023/12/27 00:39:23;;;;;;;46.88;30.52;;;;;;;28.77;65.33;101388.50;4954404;28;64685;-38
2023/12/27 00:41:54;;;;;;;39.47;29.75;;;;;;;28.79;66.07;101394.56;4957507;28;70392;-39
2023/12/27 00:44:24;;;;;;;37.78;29.85;;;;;;;28.67;63.52;101366.44;4971965;28;67320;-39
2023/12/27 00:46:54;;;;;;;37.40;27.98;;;;;;;28.85;63.73;101396.47;4951450;28;69978;-39
2023/12/27 00:49:25;;;;;;;44.40;28.73;;;;;;;28.88;63.36;101401.47;4965235;28;66776;-38
2023/12/27 00:51:56;;;;;;;40.47;26.98;;;;;;;28.89;62.46;101402.31;4960952;28;70513;-38
2023/12/27 00:54:27;;;;;;;37.80;24.50;;;;;;;28.82;66.94;101404.13;4972171;28;66552;-39
2023/12/27 00:56:57;;;;;;;40.00;24.08;;;;;;;28.91;63.04;101400.25;4966117;28;70388;-38
2023/12/27 00:59:27;;;;;;;29.88;22.73;;;;;;;28.94;62.92;101394.47;4948746;28;66187;-39
2023/12/27 01:01:57;;;;;;;36.05;23.83;;;;;;;28.87;63.43;101394.44;4962670;28;70092;-40
2023/12/27 01:04:27;;;;;;;35.95;22.80;;;;;;;28.78;65.13;101387.50;4946512;28;65409;-39
2023/12/27 01:06:58;;;;;;;32.08;21.67;;;;;;;29.06;61.27;101408.31;4966092;28;71367;-40
2023/12/27 01:09:28;;;;;;;28.08;20.30;;;;;;;29.10;60.58;101415.00;4970684;28;66223;-39
2023/12/27 01:11:58;;;;;;;31.60;19.70;;;;;;;29.09;60.25;101403.38;4965306;28;69437;-40
2023/12/27 01:14:29;;;;;;;27.33;18.90;;;;;;;29.13;60.49;101415.44;4953955;28;65598;-39
2023/12/27 01:17:00;;;;;;;26.88;17.20;;;;;;;29.09;60.30;101402.53;4945366;28;69729;-39
2023/12/27 01:19:31;;;;;;;21.83;17.27;;;;;;;29.18;60.28;101417.56;4976581;28;66640;-40
2023/12/27 01:22:01;;;;;;;22.13;16.93;;;;;;;29.17;59.65;101416.72;4972540;28;69839;-39
2023/12/27 01:24:32;;;;;;;21.73;16.17;;;;;;;29.20;59.72;101418.22;4968908;28;66505;-40
2023/12/27 01:27:02;;;;;;;24.83;15.65;;;;;;;29.23;59.38;101425.09;4959358;28;70087;-39
2023/12/27 01:29:32;;;;;;;19.95;15.32;;;;;;;29.16;59.40;101416.91;4961361;28;66231;-39
2023/12/27 01:32:03;;;;;;;21.55;15.85;;;;;;;29.24;59.85;101441.09;4954981;28;69524;-39
2023/12/27 01:34:38;;;;;;;26.05;15.68;;;;;;;29.09;59.29;101419.56;4961373;28;66541;-39
2023/12/27 01:37:08;;;;;;;18.30;14.30;;;;;;;29.24;59.42;101454.59;4967538;28;69113;-40
2023/12/27 01:39:40;;;;;;;18.35;13.73;;;;;;;29.27;59.42;101456.91;4967977;28;67620;-40
2023/12/27 01:42:10;;;;;;;16.85;14.32;;;;;;;29.24;59.63;101438.38;4952663;28;69868;-40
2023/12/27 01:44:41;;;;;;;18.98;13.98;;;;;;;29.14;59.17;101425.22;4961394;28;65807;-41
2023/12/27 01:47:13;;;;;;;22.75;14.18;;;;;;;29.23;59.56;101442.13;4948014;28;70300;-40
2023/12/27 01:49:43;;;;;;;14.55;13.13;;;;;;;29.25;59.54;101458.97;4970952;28;66293;-40
2023/12/27 01:52:13;;;;;;;18.48;13.65;;;;;;;29.33;59.01;101464.22;4963966;28;70175;-39
2023/12/27 01:54:44;;;;;;;18.15;13.68;;;;;;;29.34;59.00;101449.69;4946448;28;65911;-40
2023/12/27 01:57:14;;;;;;;17.80;13.77;;;;;;;29.35;59.42;101455.94;4963016;28;70341;-40
2023/12/27 01:59:46;;;;;;;15.10;13.00;;;;;;;29.27;59.23;101443.41;4943180;28;65677;-39
2023/12/27 02:02:17;;;;;;;13.77;12.43;;;;;;;29.37;59.51;101460.13;4946387;28;69542;-39
2023/12/27 02:04:47;;;;;;;15.57;12.65;;;;;;;29.39;59.15;101451.78;4935190;28;66422;-39
2023/12/27 02:07:18;;;;;;;15.48;12.68;;;;;;;29.42;59.43;101458.69;4947411;28;69818;-40
2023/12/27 02:09:59;;;;;;;13.50;12.20;;;;;;;29.42;58.88;101455.97;4956364;28;65218;-39
2023/12/27 02:12:31;;;;;;;13.32;12.15;;;;;;;29.45;59.39;101461.84;4980180;28;69366;-39
2023/12/27 02:15:02;;;;;;;15.02;12.07;;;;;;;29.43;59.43;101457.66;4974635;28;66229;-39
2023/12/27 02:17:34;;;;;;;;;;;;;;;29.08;60.04;101462.97;4944681;28;69133;-40
2023/12/27 02:20:05;;;;;;;13.45;11.40;;;;;;;29.43;59.37;101457.66;4962747;28;66683;-39
2023/12/27 02:22:38;;;;;;;13.97;11.93;;;;;;;29.42;58.87;101464.94;4962129;28;69877;-41
2023/12/27 02:25:09;;;;;;;13.75;11.63;;;;;;;29.44;59.06;101472.84;4963677;28;66207;-39
2023/12/27 02:27:41;;;;;;;11.32;10.15;;;;;;;29.46;58.99;101462.66;4971025;28;70080;-41
2023/12/27 02:30:22;;;;;;;13.07;11.57;;;;;;;29.39;59.40;101452.66;4960682;28;67063;-42
2023/12/27 02:32:54;;;;;;;11.88;10.80;;;;;;;29.47;59.11;101450.81;4935558;28;69356;-41
2023/12/27 02:35:25;;;;;;;11.27;10.33;;;;;;;29.43;59.04;101431.47;4944766;28;65643;-42
2023/12/27 02:37:56;;;;;;;12.95;11.63;;;;;;;29.56;59.40;101453.19;4929714;28;71118;-40
2023/12/27 02:40:28;;;;;;;11.77;10.52;;;;;;;29.48;59.08;101434.41;4952746;28;65076;-43
2023/12/27 02:42:58;;;;;;;10.88;9.93;;;;;;;29.56;58.82;101442.38;4959377;28;70133;-40
2023/12/27 02:45:29;;;;;;;10.98;9.90;;;;;;;29.60;59.29;101438.22;4961750;28;66673;-40
2023/12/27 02:48:01;;;;;;;11.35;10.30;;;;;;;29.65;59.35;101445.78;4932311;28;69132;-41
2023/12/27 02:50:32;;;;;;;12.02;10.93;;;;;;;29.68;58.80;101445.38;4944650;28;65436;-41
2023/12/27 02:53:04;;;;;;;11.35;10.05;;;;;;;29.68;58.80;101450.78;4944602;28;68872;-41
2023/12/27 02:55:34;;;;;;;11.98;10.68;;;;;;;29.65;58.83;101439.53;4968599;28;65785;-40
2023/12/27 02:58:05;;;;;;;10.85;9.77;;;;;;;29.73;59.16;101452.91;4953975;28;70579;-40
2023/12/27 03:00:37;;;;;;;11.45;10.38;;;;;;;29.46;58.86;101405.91;4962383;28;66791;-39
2023/12/27 03:03:08;;;;;;;10.63;9.65;;;;;;;29.76;59.44;101449.81;4956315;28;70100;-40
2023/12/27 03:05:39;;;;;;;12.25;10.70;;;;;;;29.74;59.38;101444.59;4934013;28;66517;-39
2023/12/27 03:08:09;;;;;;;11.65;10.50;;;;;;;29.78;58.80;101451.28;4972236;28;70314;-40
2023/12/27 03:10:39;;;;;;;12.07;10.73;;;;;;;29.81;58.99;101447.31;4959310;28;66109;-40
2023/12/27 03:13:09;;;;;;;12.07;11.07;;;;;;;29.84;58.93;101449.66;4948552;28;70095;-39
2023/12/27 03:15:40;;;;;;;11.70;10.60;;;;;;;29.75;59.38;101424.59;4944619;28;65268;-40
2023/12/27 03:18:10;;;;;;;11.10;10.27;;;;;;;29.88;59.25;101445.50;4961225;28;69489;-41
2023/12/27 03:20:43;;;;;;;12.45;11.20;;;;;;;29.91;58.78;101447.78;4970751;28;43156;-40
2023/12/27 03:23:15;;;;;;;12.55;10.75;;;;;;;29.91;59.39;101439.69;4946933;28;70463;-40
2023/12/27 03:25:45;;;;;;;11.85;10.77;;;;;;;29.95;59.13;101430.16;4942291;28;65797;-41
2023/12/27 03:28:16;;;;;;;10.65;9.75;;;;;;;29.91;59.17;101426.16;4940705;28;69645;-40
2023/12/27 03:30:46;;;;;;;12.30;10.65;;;;;;;30.00;58.88;101424.09;4959438;28;64645;-40
2023/12/27 03:33:17;;;;;;;11.05;10.15;;;;;;;29.99;58.70;101420.56;4953970;28;68076;-41
2023/12/27 03:35:48;;;;;;;11.90;10.70;;;;;;;30.01;58.83;101420.38;4969544;28;65493;-40
2023/12/27 03:38:19;;;;;;;10.40;9.75;;;;;;;30.05;58.98;101422.47;4979363;28;69987;-40
2023/12/27 03:40:49;;;;;;;10.50;9.75;;;;;;;29.92;58.83;101399.94;4954223;28;66331;-41
2023/12/27 03:43:20;;;;;;;10.37;9.33;;;;;;;30.07;59.12;101416.88;4962584;28;69352;-41
2023/12/27 03:45:54;;;;;;;12.95;10.57;;;;;;;30.06;58.87;101409.78;4975848;28;66517;-41
2023/12/27 03:48:24;;;;;;;10.43;9.75;;;;;;;30.14;58.66;101406.06;4969238;28;69867;-39
2023/12/27 03:50:55;;;;;;;10.32;9.52;;;;;;;30.15;59.13;101403.16;4978954;28;66265;-40
2023/12/27 03:53:25;;;;;;;11.73;10.73;;;;;;;30.16;59.16;101395.88;4963398;28;70153;-39
2023/12/27 03:55:55;;;;;;;10.85;10.05;;;;;;;30.21;58.65;101402.34;4959903;28;66219;-40
2023/12/27 03:58:27;;;;;;;12.85;10.43;;;;;;;30.21;58.91;101401.50;4957421;28;70322;-41
2023/12/27 04:00:58;;;;;;;10.80;9.77;;;;;;;30.23;58.79;101405.72;4964918;28;65781;-39
2023/12/27 04:03:28;;;;;;;10.45;9.65;;;;;;;30.19;59.27;101388.19;4947068;28;69511;-40
2023/12/27 04:06:01;;;;;;;10.55;9.60;;;;;;;30.27;58.67;101395.31;4933220;28;66669;-39
2023/12/27 04:08:31;;;;;;;10.27;9.35;;;;;;;30.17;58.64;101374.03;4946824;28;70430;-40
2023/12/27 04:11:02;;;;;;;9.63;8.80;;;;;;;30.28;58.69;101381.59;4963957;28;66903;-40
2023/12/27 04:13:34;;;;;;;10.70;9.77;;;;;;;30.35;58.76;101391.59;4946369;28;70363;-41
2023/12/27 04:16:05;;;;;;;11.48;10.32;;;;;;;30.37;59.05;101389.50;4965541;28;65745;-40
2023/12/27 04:18:36;;;;;;;9.83;9.13;;;;;;;30.38;58.97;101380.34;4964270;28;69667;-40
2023/12/27 04:21:06;;;;;;;10.70;9.68;;;;;;;30.44;58.47;101376.81;4967327;28;65642;-40
2023/12/27 04:23:37;;;;;;;11.52;10.40;;;;;;;30.44;58.77;101363.28;4957684;28;70317;-40
2023/12/27 04:26:08;;;;;;;11.50;10.38;;;;;;;30.47;58.54;101368.28;4949711;28;66417;-41
2023/12/27 04:28:38;;;;;;;11.50;10.50;;;;;;;30.48;58.55;101359.16;4960774;28;70525;-40
2023/12/27 04:31:08;;;;;;;10.00;9.30;;;;;;;30.35;58.53;101326.63;4962419;28;65774;-39
2023/12/27 04:33:39;;;;;;;10.65;9.88;;;;;;;30.54;58.34;101349.38;4941107;28;71333;-39
2023/12/27 04:36:10;;;;;;;11.43;10.45;;;;;;;30.57;58.80;101347.06;4957460;28;66615;-40
2023/12/27 04:38:40;;;;;;;11.02;10.13;;;;;;;30.58;58.64;101348.72;4960318;28;70214;-40
2023/12/27 04:41:11;;;;;;;10.33;9.63;;;;;;;30.58;58.83;101348.72;4973892;28;65699;-40
2023/12/27 04:43:41;;;;;;;11.43;10.23;;;;;;;30.65;58.61;101346.88;4972341;28;69724;-40
2023/12/27 04:46:12;;;;;;;11.27;10.13;;;;;;;30.68;58.21;101349.16;4963763;28;66407;-40
2023/12/27 04:48:42;;;;;;;13.32;12.23;;;;;;;30.69;58.45;101345.41;4945539;28;69569;-40
2023/12/27 04:51:14;;;;;;;11.63;10.63;;;;;;;30.72;58.71;101339.56;4941706;28;66073;-40
2023/12/27 04:53:44;;;;;;;11.75;10.75;;;;;;;30.72;58.73;101336.84;4938702;28;69876;-40
2023/12/27 04:56:18;;;;;;;11.68;10.88;;;;;;;30.75;58.20;101329.34;4956834;28;66232;-40
2023/12/27 04:58:48;;;;;;;11.52;10.55;;;;;;;30.76;58.80;101323.75;4946277;28;70076;-39
2023/12/27 05:01:18;;;;;;;12.18;11.10;;;;;;;30.80;58.10;101321.47;4953839;28;66435;-40
2023/12/27 05:03:50;;;;;;;13.10;11.93;;;;;;;30.68;58.64;101305.81;4972261;28;70437;-40
2023/12/27 05:06:21;;;;;;;16.98;15.38;;;;;;;30.83;58.42;101312.94;4980918;28;65726;-40
2023/12/27 05:08:51;;;;;;;14.60;13.15;;;;;;;30.87;58.59;101316.88;4970563;28;69812;-40
2023/12/27 05:11:23;;;;;;;13.48;12.27;;;;;;;30.88;58.36;101321.25;4938752;28;65837;-40
2023/12/27 05:13:53;;;;;;;14.07;12.75;;;;;;;30.87;58.30;101308.75;4957981;28;70438;-39
2023/12/27 05:16:24;;;;;;;17.65;12.60;;;;;;;30.93;58.49;101307.94;4976440;28;65369;-40
2023/12/27 05:18:55;;;;;;;12.20;11.30;;;;;;;30.94;58.29;101305.00;4978218;28;70176;-39
2023/12/27 05:21:25;;;;;;;12.52;11.50;;;;;;;30.96;58.10;101288.53;4976128;28;66808;-39
2023/12/27 05:23:55;;;;;;;13.32;12.10;;;;;;;30.93;58.42;101278.13;4978631;28;70303;-39
2023/12/27 05:26:26;;;;;;;13.63;12.40;;;;;;;30.90;58.15;101275.84;4959343;28;66150;-40
2023/12/27 05:28:56;;;;;;;13.65;12.32;;;;;;;31.02;58.31;101290.41;4961757;28;69969;-40
2023/12/27 05:31:27;;;;;;;14.93;13.43;;;;;;;30.92;58.02;101273.72;4940826;28;66042;-40
2023/12/27 05:33:58;;;;;;;15.63;14.30;;;;;;;31.04;58.26;101288.31;4971892;28;69225;-39
2023/12/27 05:36:28;;;;;;;16.90;15.20;;;;;;;31.06;58.43;101275.38;4956235;28;67524;-40
2023/12/27 05:38:59;;;;;;;17.25;15.48;;;;;;;31.08;58.34;101262.44;4967649;28;70178;-40
2023/12/27 05:41:30;;;;;;;20.70;18.73;;;;;;;31.10;58.63;101265.78;4976789;28;66679;-40
2023/12/27 05:44:01;;;;;;;20.65;18.73;;;;;;;31.01;58.16;101237.25;4970451;28;70611;-40
2023/12/27 05:46:35;;;;;;;19.40;17.73;;;;;;;31.11;58.60;101243.06;4945640;28;65764;-40
2023/12/27 05:49:05;;;;;;;21.52;19.55;;;;;;;31.05;58.31;101224.94;4952637;28;69090;-39
2023/12/27 05:51:36;;;;;;;21.42;19.27;;;;;;;31.19;58.39;101241.16;4971301;28;66646;-40
2023/12/27 05:54:06;;;;;;;23.42;21.02;;;;;;;31.21;58.44;101239.06;4952423;28;69124;-39
2023/12/27 05:56:36;;;;;;;25.38;22.90;;;;;;;31.23;58.04;101236.97;4971184;28;65988;-41
2023/12/27 05:59:07;;;;;;;27.15;19.98;;;;;;;31.21;58.26;101222.81;4945927;28;69588;-40
2023/12/27 06:01:38;;;;;;;28.20;22.30;;;;;;;31.28;58.31;101223.59;4967267;28;65848;-40
2023/12/27 06:04:09;;;;;;;25.30;22.90;;;;;;;31.22;58.28;101216.34;4962474;28;70799;-41
2023/12/27 06:06:39;;;;;;;30.40;27.25;;;;;;;31.33;58.37;101221.09;4967819;28;66301;-39
2023/12/27 06:09:10;;;;;;;34.60;29.52;;;;;;;31.33;58.34;101212.94;4962943;28;69569;-40
2023/12/27 06:11:41;;;;;;;35.88;28.70;;;;;;;31.34;58.54;101214.59;4961877;28;66287;-39
2023/12/27 06:14:12;;;;;;;31.92;28.60;;;;;;;31.37;58.18;101212.34;4965532;28;69769;-40
2023/12/27 06:16:43;;;;;;;30.17;26.97;;;;;;;31.26;58.40;101193.16;4966524;28;66883;-40
2023/12/27 06:19:13;;;;;;;31.77;28.40;;;;;;;31.41;58.42;101196.47;4950297;28;70769;-40
2023/12/27 06:21:44;;;;;;;25.53;22.83;;;;;;;31.42;58.22;101200.84;4940152;28;66265;-40
2023/12/27 06:24:14;;;;;;;26.55;22.88;;;;;;;31.44;58.08;101196.03;4970778;28;70465;-40
2023/12/27 06:26:45;;;;;;;26.60;23.80;;;;;;;31.46;58.10;101188.53;4972291;28;66141;-40
2023/12/27 06:29:15;;;;;;;26.67;24.20;;;;;;;31.35;58.16;101176.47;4978432;28;70517;-40
2023/12/27 06:31:45;;;;;;;27.08;24.33;;;;;;;31.52;57.85;101186.84;4974948;28;65839;-41
2023/12/27 06:34:18;;;;;;;27.60;24.70;;;;;;;31.34;58.11;101157.69;4968487;28;70325;-40
2023/12/27 06:36:51;;;;;;;27.85;24.95;;;;;;;31.56;57.95;101183.44;4957418;28;66762;-40
2023/12/27 06:39:21;;;;;;;30.60;24.92;;;;;;;31.58;58.06;101175.94;4960869;28;69995;-40
2023/12/27 06:41:51;;;;;;;26.13;23.63;;;;;;;31.47;58.20;101157.66;4971073;28;65760;-40
2023/12/27 06:44:22;;;;;;;28.33;25.45;;;;;;;31.57;57.95;101168.03;4977381;28;69591;-40
2023/12/27 06:46:53;;;;;;;31.60;25.95;;;;;;;31.65;57.99;101164.19;4943901;28;65773;-40
2023/12/27 06:49:23;;;;;;;27.88;24.17;;;;;;;31.60;58.12;101151.31;4930362;28;71396;-40
2023/12/27 06:51:54;;;;;;;29.75;25.23;;;;;;;31.69;57.99;101165.44;4966631;28;65452;-40
2023/12/27 06:54:25;;;;;;;28.42;25.00;;;;;;;31.71;58.29;101164.19;4960362;28;69425;-40
2023/12/27 06:56:55;;;;;;;31.80;26.60;;;;;;;31.74;58.33;101168.34;4960062;28;66115;-39
2023/12/27 06:59:27;;;;;;;28.53;25.73;;;;;;;31.73;58.23;101155.81;4962881;28;69358;-39
2023/12/27 07:01:57;;;;;;;27.67;24.70;;;;;;;31.76;58.09;101166.22;4948583;28;64798;-39
2023/12/27 07:04:28;;;;;;;26.88;24.40;;;;;;;31.80;57.95;101160.13;4961331;28;69800;-39
2023/12/27 07:06:58;;;;;;;30.27;25.75;;;;;;;31.79;57.62;101149.53;4976650;28;66606;-39
2023/12/27 07:09:28;;;;;;;28.70;25.08;;;;;;;31.72;57.96;101127.03;4964159;28;69567;-39
2023/12/27 07:11:59;;;;;;;29.60;26.40;;;;;;;31.86;58.14;101144.88;4965475;28;66694;-39
2023/12/27 07:14:29;;;;;;;29.58;25.52;;;;;;;31.79;57.78;101133.25;4982866;28;69878;-39
2023/12/27 07:16:59;;;;;;;30.95;26.13;;;;;;;31.92;57.93;101144.00;4982609;28;66398;-39
2023/12/27 07:19:30;;;;;;;33.22;26.17;;;;;;;31.93;58.20;101148.41;4981858;28;70596;-41
2023/12/27 07:22:02;;;;;;;29.73;26.58;;;;;;;31.54;57.95;101077.09;4973929;28;66792;-40
2023/12/27 07:24:33;;;;;;;29.67;26.58;;;;;;;31.94;58.08;101139.19;4964456;28;68888;-40
2023/12/27 07:27:03;;;;;;;28.90;26.20;;;;;;;31.95;57.79;101127.28;4950236;28;65632;-40
2023/12/27 07:29:36;;;;;;;29.50;26.30;;;;;;;32.05;57.71;101132.22;4974812;28;70532;-40
2023/12/27 07:32:07;;;;;;;34.83;27.08;;;;;;;32.07;57.77;101123.84;4946730;28;66052;-40
2023/12/27 07:34:37;;;;;;;30.77;26.73;;;;;;;32.09;57.75;101119.84;4952356;28;70750;-40
2023/12/27 07:37:08;;;;;;;28.70;25.63;;;;;;;31.98;57.88;101094.31;4978410;28;65703;-39
2023/12/27 07:39:40;;;;;;;29.00;26.20;;;;;;;32.13;57.53;101114.84;4977149;28;70190;-41
2023/12/27 07:42:11;;;;;;;29.55;26.48;;;;;;;32.17;57.81;101118.75;4959662;28;65674;-40
2023/12/27 07:44:41;;;;;;;28.90;25.90;;;;;;;32.18;57.58;101114.97;4972098;28;70961;-41
2023/12/27 07:47:11;;;;;;;30.30;27.10;;;;;;;32.19;57.61;101116.66;4955259;28;66442;-40
2023/12/27 07:49:42;;;;;;;30.30;27.13;;;;;;;32.22;57.62;101113.47;4955259;28;69433;-41
2023/12/27 07:52:13;;;;;;;30.17;27.15;;;;;;;32.17;57.62;101107.88;4966737;28;65156;-40
2023/12/27 07:54:43;;;;;;;30.17;27.00;;;;;;;32.25;57.89;101113.03;4934029;28;69106;-40
2023/12/27 07:57:13;;;;;;;31.08;26.52;;;;;;;32.29;57.58;101111.53;4965821;28;65839;-41
2023/12/27 07:59:44;;;;;;;29.88;26.63;;;;;;;32.27;57.79;101102.78;4958442;28;70490;-41
2023/12/27 08:02:14;;;;;;;30.50;27.40;;;;;;;32.31;57.54;101106.69;4964814;28;66564;-40
2023/12/27 08:04:45;;;;;;;31.63;28.10;;;;;;;32.33;57.77;101107.31;4976934;28;69170;-41
2023/12/27 08:07:16;;;;;;;32.28;27.35;;;;;;;32.30;57.55;101102.34;4948843;28;67610;-40
2023/12/27 08:09:46;;;;;;;32.88;27.55;;;;;;;32.28;57.37;101093.56;4961636;28;69663;-41
2023/12/27 08:12:17;;;;;;;29.48;26.40;;;;;;;32.37;57.21;101103.06;4958557;28;66243;-40
2023/12/27 08:14:47;;;;;;;30.52;27.30;;;;;;;32.36;57.45;101098.72;4971893;28;70439;-40
2023/12/27 08:17:18;;;;;;;29.50;26.60;;;;;;;32.34;57.17;101087.25;4955015;28;66645;-39
2023/12/27 08:19:48;;;;;;;31.20;27.92;;;;;;;32.32;57.26;101078.50;4969180;28;70246;-40
2023/12/27 08:22:18;;;;;;;30.63;27.60;;;;;;;32.31;57.49;101073.28;4961838;28;66547;-41
2023/12/27 08:24:49;;;;;;;30.65;27.55;;;;;;;32.42;57.24;101095.09;4964757;28;70824;-40
2023/12/27 08:27:19;;;;;;;30.60;27.40;;;;;;;32.45;57.64;101102.78;4962411;28;65913;-40
2023/12/27 08:29:49;;;;;;;31.98;26.10;;;;;;;32.47;57.28;101099.88;4967241;28;70257;-40
2023/12/27 08:32:20;;;;;;;28.20;25.50;;;;;;;32.46;57.27;101099.06;4961083;28;65900;-40
2023/12/27 08:34:50;;;;;;;30.50;27.35;;;;;;;32.47;57.35;101108.03;4964052;28;69731;-40
2023/12/27 08:37:21;;;;;;;29.10;26.20;;;;;;;32.48;57.38;101104.25;4963052;28;66169;-40
2023/12/27 08:39:51;;;;;;;30.92;26.42;;;;;;;32.51;57.42;101108.41;4957499;28;70713;-39
2023/12/27 08:42:22;;;;;;;31.50;26.55;;;;;;;32.52;57.46;101110.06;4964837;28;66897;-40
2023/12/27 08:44:52;;;;;;;29.60;26.50;;;;;;;32.53;57.54;101103.56;4963553;28;70454;-40
2023/12/27 08:47:23;;;;;;;28.90;25.85;;;;;;;32.52;57.42;101104.66;4966650;28;66771;-41
2023/12/27 08:49:55;;;;;;;33.13;26.40;;;;;;;32.54;57.49;101107.94;4953799;28;70610;-41
2023/12/27 08:52:25;;;;;;;31.10;26.38;;;;;;;32.53;57.58;101112.56;4964869;28;65729;-42
2023/12/27 08:54:56;;;;;;;29.23;25.02;;;;;;;32.56;57.53;101109.38;4982199;28;70151;-39
2023/12/27 08:57:27;;;;;;;27.88;24.95;;;;;;;32.54;57.57;101108.78;4963800;28;65357;-41
2023/12/27 09:00:02;;;;;;;34.20;27.13;;;;;;;32.58;57.52;101122.75;4930420;28;69963;-39
2023/12/27 09:02:33;;;;;;;28.73;25.45;;;;;;;32.53;57.59;101114.44;4945526;28;66049;-41
2023/12/27 09:05:05;;;;;;;27.35;23.60;;;;;;;32.56;57.76;101113.97;4958967;28;70116;-40
2023/12/27 09:07:35;;;;;;;;;;;;;;;32.35;58.79;101121.50;4955137;28;65154;-40
2023/12/27 09:10:06;;;;;;;31.23;25.65;;;;;;;32.55;57.82;101120.47;4974429;28;69998;-41
2023/12/27 09:12:38;;;;;;;28.30;24.83;;;;;;;32.55;57.94;101126.75;4966584;28;66260;-40
2023/12/27 09:15:09;;;;;;;30.90;24.42;;;;;;;32.42;57.61;101105.94;4961952;28;70640;-39
2023/12/27 09:17:40;;;;;;;38.28;30.67;;;;;;;32.26;59.67;101128.25;4949689;28;67145;-38
2023/12/27 09:20:11;;;;;;;48.22;37.00;;;;;;;32.07;61.51;101129.25;4964114;28;70615;-39
2023/12/27 09:22:41;;;;;;;47.25;37.58;;;;;;;31.87;61.57;101127.53;4976743;28;67092;-39
2023/12/27 09:25:12;;;;;;;49.22;38.83;;;;;;;31.88;63.25;101134.63;4980802;28;69887;-41
2023/12/27 09:27:44;;;;;;;51.92;39.65;;;;;;;31.92;62.86;101138.56;4969011;28;66365;-39
2023/12/27 09:30:15;;;;;;;50.00;39.35;;;;;;;31.77;62.39;101121.78;4956242;28;69151;-40
2023/12/27 09:32:46;;;;;;;46.22;38.25;;;;;;;31.80;63.66;101145.75;4950829;28;65877;-40
2023/12/27 09:35:17;;;;;;;46.42;37.92;;;;;;;32.03;61.52;101151.41;4954471;28;69908;-40
2023/12/27 09:37:48;;;;;;;39.55;35.33;;;;;;;32.04;60.83;101125.97;4961627;28;65768;-39
2023/12/27 09:40:18;;;;;;;40.42;35.92;;;;;;;32.27;60.40;101151.66;4949201;28;69752;-39
2023/12/27 09:42:50;;;;;;;43.33;36.33;;;;;;;32.22;60.58;101132.47;4963204;28;65581;-38
2023/12/27 09:45:22;;;;;;;40.30;35.83;;;;;;;31.86;60.32;101076.22;4969618;28;69308;-39
2023/12/27 09:47:55;;;;;;;41.03;36.70;;;;;;;32.39;60.24;101160.69;4962532;28;66344;-42
2023/12/27 09:50:26;;;;;;;42.33;36.45;;;;;;;32.42;60.42;101162.13;4945844;28;70034;-38
2023/12/27 09:52:58;;;;;;;46.72;35.95;;;;;;;32.44;60.18;101163.59;4961592;28;66611;-39
2023/12/27 09:55:28;;;;;;;44.40;36.15;;;;;;;32.48;60.14;101178.41;4954646;28;70041;-39
2023/12/27 09:57:58;;;;;;;38.83;34.13;;;;;;;32.51;60.22;101171.69;4960969;28;67347;-39
2023/12/27 10:00:32;;;;;;;38.65;34.67;;;;;;;32.53;60.20;101171.47;4947106;28;70336;-39
2023/12/27 10:03:04;;;;;;;46.97;34.65;;;;;;;32.43;59.93;101159.22;4961668;28;65473;-39
2023/12/27 10:05:48;;;;;;;36.85;32.53;;;;;;;32.52;59.98;101177.97;4943760;28;69081;-38
2023/12/27 10:08:19;;;;;;;;;;;;;;;32.31;62.12;101184.59;4969171;28;66489;-38
2023/12/27 10:10:51;;;;;;;34.78;31.08;;;;;;;32.34;60.23;101152.41;4963994;28;69646;-39
2023/12/27 10:13:22;;;;;;;44.97;30.58;;;;;;;32.55;60.17;101191.09;4948571;28;66751;-39
2023/12/27 10:15:52;;;;;;;36.40;30.70;;;;;;;32.55;60.10;101180.22;4971487;28;70183;-40
2023/12/27 10:18:22;;;;;;;33.75;30.08;;;;;;;32.53;60.12;101193.19;4947915;28;65957;-39
2023/12/27 10:20:54;;;;;;;37.75;29.00;;;;;;;32.56;60.50;101209.03;4946523;28;70266;-42
2023/12/27 10:23:27;;;;;;;40.03;28.58;;;;;;;32.22;60.18;101155.03;4973559;28;65746;-38
2023/12/27 10:25:58;;;;;;;38.30;26.33;;;;;;;32.55;60.31;101201.94;4970843;28;70165;-39
2023/12/27 10:28:29;;;;;;;26.38;23.85;;;;;;;32.28;60.39;101164.97;4962373;28;67240;-38
2023/12/27 10:30:59;;;;;;;34.78;25.92;;;;;;;32.55;60.25;101202.78;4967347;28;68989;-39
2023/12/27 10:33:43;;;;;;;31.50;24.88;;;;;;;31.69;63.18;101113.91;4957954;28;65804;-38
2023/12/27 10:36:17;;;;;;;25.10;22.27;;;;;;;32.10;64.13;101226.53;4943031;28;69205;-39
2023/12/27 10:38:49;;;;;;;28.05;20.88;;;;;;;31.82;65.56;101187.06;4971052;28;65477;-39
2023/12/27 10:41:23;;;;;;;21.85;19.48;;;;;;;31.05;65.40;101066.97;4961032;28;70463;-39
2023/12/27 10:43:54;;;;;;;24.42;18.95;;;;;;;31.98;63.66;101219.13;4991042;28;65383;-38
2023/12/27 10:46:24;;;;;;;27.88;17.75;;;;;;;31.90;65.60;101224.78;4983652;28;69752;-39
2023/12/27 10:48:58;;;;;;;19.88;16.70;;;;;;;31.40;65.41;101135.19;4972054;28;66592;-40
2023/12/27 10:51:38;;;;;;;20.20;16.58;;;;;;;31.89;66.22;101230.41;4961840;28;70438;-39
2023/12/27 10:54:13;;;;;;;21.98;15.20;;;;;;;31.86;66.58;101234.38;4947999;28;65948;-40
2023/12/27 10:56:46;;;;;;;17.58;15.02;;;;;;;31.91;64.72;101240.03;4970326;28;69129;-39
2023/12/27 10:59:17;;;;;;;17.13;15.32;;;;;;;31.89;65.18;101225.81;4964009;28;65966;-38
2023/12/27 11:01:50;;;;;;;16.57;14.80;;;;;;;31.81;65.35;101229.59;4973853;28;70081;-38
2023/12/27 11:04:22;;;;;;;15.95;14.32;;;;;;;31.87;65.17;101238.75;4952816;28;66369;-39
2023/12/27 11:06:55;;;;;;;19.38;14.35;;;;;;;31.86;65.23;101239.81;4950959;28;70657;-39
2023/12/27 11:09:30;;;;;;;19.13;14.02;;;;;;;31.82;67.60;101241.31;4944898;28;65432;-40
2023/12/27 11:12:02;;;;;;;21.75;14.27;;;;;;;31.76;67.83;101237.59;4944593;28;70712;-39
2023/12/27 11:14:35;;;;;;;13.73;12.30;;;;;;;31.85;65.32;101250.91;4944263;28;65674;-40
2023/12/27 11:17:10;;;;;;;22.70;12.80;;;;;;;31.87;66.23;101241.47;4975455;28;70163;-39
2023/12/27 11:19:44;;;;;;;19.40;13.63;;;;;;;31.92;65.53;101255.25;4941505;28;65155;-38
2023/12/27 11:22:14;;;;;;;13.55;12.13;;;;;;;32.05;64.63;101244.31;4939586;28;68366;-39
2023/12/27 11:24:45;;;;;;;16.33;11.52;;;;;;;32.13;63.98;101247.81;4956071;28;66365;-41
2023/12/27 11:27:19;;;;;;;12.20;11.07;;;;;;;32.15;63.91;101243.81;4946565;28;70092;-40
2023/12/27 11:29:51;;;;;;;19.73;11.98;;;;;;;32.07;63.76;101227.81;4950228;28;65806;-38